createdAt,value
2018-05-13T00:00:23.726Z,19.76
2018-05-13T00:02:50.018Z,19.76
2018-05-13T00:05:16.548Z,19.78
2018-05-13T00:07:42.791Z,19.75
2018-05-13T00:10:09.115Z,19.69
2018-05-13T00:12:35.443Z,19.64
2018-05-13T00:15:01.763Z,19.62
2018-05-13T00:17:28.198Z,19.59
2018-05-13T00:19:54.423Z,19.63
2018-05-13T00:22:20.678Z,19.58
2018-05-13T00:24:46.967Z,19.57
2018-05-13T00:27:13.235Z,19.52
2018-05-13T00:29:39.507Z,19.56
2018-05-13T00:32:06.047Z,19.59
2018-05-13T00:34:32.323Z,19.56
2018-05-13T00:36:58.627Z,19.57
2018-05-13T00:39:24.938Z,19.53
2018-05-13T00:41:51.219Z,19.55
2018-05-13T00:44:17.483Z,19.54
2018-05-13T00:46:43.739Z,19.57
2018-05-13T00:49:10.017Z,19.50
2018-05-13T00:51:36.327Z,19.45
2018-05-13T00:54:02.681Z,19.42
2018-05-13T00:56:28.955Z,19.40
2018-05-13T00:58:55.338Z,19.38
2018-05-13T01:01:21.570Z,19.35
2018-05-13T01:03:47.853Z,19.32
2018-05-13T01:06:14.094Z,19.30
2018-05-13T01:08:40.403Z,19.31
2018-05-13T01:11:06.663Z,19.31
2018-05-13T01:13:32.966Z,19.33
2018-05-13T01:15:59.263Z,19.25
2018-05-13T01:18:25.520Z,19.23
2018-05-13T01:20:51.756Z,19.03
2018-05-13T01:23:18.028Z,18.96
2018-05-13T01:25:44.267Z,18.81
2018-05-13T01:28:10.486Z,18.84
2018-05-13T01:30:36.742Z,18.78
2018-05-13T01:33:03.061Z,18.81
2018-05-13T01:35:29.331Z,18.77
2018-05-13T01:37:55.698Z,18.78
2018-05-13T01:40:21.922Z,18.72
2018-05-13T01:42:48.198Z,18.74
2018-05-13T01:45:14.482Z,18.85
2018-05-13T01:47:40.726Z,18.86
2018-05-13T01:50:07.061Z,18.90
2018-05-13T01:52:33.326Z,18.84
2018-05-13T01:54:59.546Z,18.90
2018-05-13T01:57:25.800Z,18.89
2018-05-13T01:59:52.055Z,18.95
2018-05-13T02:02:18.318Z,18.94
2018-05-13T02:04:44.575Z,18.98
2018-05-13T02:07:10.839Z,19.02
2018-05-13T02:09:37.095Z,19.03
2018-05-13T02:12:03.351Z,19.03
2018-05-13T02:14:29.605Z,19.03
2018-05-13T02:16:55.850Z,19.04
2018-05-13T02:19:22.091Z,19.11
2018-05-13T02:21:48.358Z,19.12
2018-05-13T02:24:14.610Z,18.94
2018-05-13T02:26:40.874Z,18.91
2018-05-13T02:29:07.190Z,18.93
2018-05-13T02:31:33.434Z,18.94
2018-05-13T02:33:59.982Z,18.86
2018-05-13T02:36:26.271Z,18.90
2018-05-13T02:38:52.515Z,18.87
2018-05-13T02:41:18.786Z,18.74
2018-05-13T02:43:45.099Z,18.80
2018-05-13T02:46:11.338Z,18.85
2018-05-13T02:48:37.591Z,18.85
2018-05-13T02:51:03.879Z,18.81
2018-05-13T02:53:30.123Z,18.81
2018-05-13T02:55:56.408Z,18.81
2018-05-13T02:58:22.734Z,18.79
2018-05-13T03:00:49.173Z,18.77
2018-05-13T03:03:15.425Z,18.75
2018-05-13T03:05:41.746Z,18.80
2018-05-13T03:08:07.995Z,18.74
2018-05-13T03:10:34.215Z,18.74
2018-05-13T03:13:00.491Z,18.71
2018-05-13T03:15:26.711Z,18.78
2018-05-13T03:17:52.938Z,18.63
2018-05-13T03:20:19.226Z,18.67
2018-05-13T03:22:45.464Z,18.58
2018-05-13T03:25:11.710Z,18.47
2018-05-13T03:27:38.003Z,18.31
2018-05-13T03:30:04.264Z,18.18
2018-05-13T03:32:30.510Z,18.15
2018-05-13T03:34:56.772Z,18.22
2018-05-13T03:37:23.021Z,18.23
2018-05-13T03:39:49.285Z,18.18
2018-05-13T03:42:15.559Z,18.25
2018-05-13T03:44:41.815Z,18.29
2018-05-13T03:47:08.058Z,18.30
2018-05-13T03:49:34.331Z,18.29
2018-05-13T03:52:00.582Z,18.29
2018-05-13T03:54:26.822Z,18.28
2018-05-13T03:56:53.086Z,18.33
2018-05-13T03:59:19.347Z,18.44
2018-05-13T04:01:45.666Z,18.50
2018-05-13T04:04:11.919Z,18.46
2018-05-13T04:06:38.222Z,18.53
2018-05-13T04:09:16.514Z,18.64
2018-05-13T04:11:54.902Z,18.69
2018-05-13T04:14:33.351Z,18.77
2018-05-13T04:16:59.609Z,18.75
2018-05-13T04:19:25.870Z,18.76
2018-05-13T04:21:53.308Z,18.75
2018-05-13T04:24:19.532Z,18.78
2018-05-13T04:26:45.760Z,18.80
2018-05-13T04:29:12.058Z,18.88
2018-05-13T04:31:38.287Z,18.85
2018-05-13T04:34:04.546Z,18.95
2018-05-13T04:36:30.822Z,19.01
2018-05-13T04:38:57.070Z,19.10
2018-05-13T04:41:23.327Z,19.12
2018-05-13T04:43:49.590Z,19.22
2018-05-13T04:46:15.842Z,19.29
2018-05-13T04:48:42.114Z,19.41
2018-05-13T04:51:08.595Z,19.46
2018-05-13T04:53:34.915Z,19.53
2018-05-13T04:56:01.174Z,19.55
2018-05-13T04:58:27.431Z,19.62
2018-05-13T05:00:53.691Z,19.63
2018-05-13T05:03:19.927Z,19.64
2018-05-13T05:05:46.202Z,19.74
2018-05-13T05:08:12.447Z,19.71
2018-05-13T05:10:38.691Z,19.80
2018-05-13T05:13:04.967Z,19.88
2018-05-13T05:15:31.190Z,19.98
2018-05-13T05:17:57.659Z,20.02
2018-05-13T05:20:23.922Z,20.12
2018-05-13T05:22:50.244Z,20.20
2018-05-13T05:25:16.543Z,20.17
2018-05-13T05:27:42.810Z,20.18
2018-05-13T05:30:09.014Z,20.26
2018-05-13T05:32:35.238Z,20.39
2018-05-13T05:35:01.490Z,20.53
2018-05-13T05:37:27.766Z,20.60
2018-05-13T05:39:54.011Z,20.75
2018-05-13T05:42:20.326Z,20.92
2018-05-13T05:44:46.547Z,20.99
2018-05-13T05:47:12.782Z,21.11
2018-05-13T05:49:39.044Z,21.28
2018-05-13T05:52:05.339Z,21.40
2018-05-13T05:54:31.575Z,21.49
2018-05-13T05:56:57.863Z,21.51
2018-05-13T05:59:24.148Z,21.56
2018-05-13T06:01:50.390Z,21.58
2018-05-13T06:04:16.682Z,21.57
2018-05-13T06:06:42.914Z,21.59
2018-05-13T06:09:09.155Z,21.69
2018-05-13T06:11:35.498Z,21.86
2018-05-13T06:14:01.807Z,21.95
2018-05-13T06:16:28.142Z,22.06
2018-05-13T06:18:54.838Z,22.15
2018-05-13T06:21:21.118Z,22.23
2018-05-13T06:23:47.362Z,22.23
2018-05-13T06:26:13.644Z,22.34
2018-05-13T06:28:39.891Z,22.46
2018-05-13T06:31:06.141Z,22.61
2018-05-13T06:33:32.426Z,22.74
2018-05-13T06:35:58.750Z,22.81
2018-05-13T06:38:24.986Z,22.86
2018-05-13T06:40:51.255Z,22.97
2018-05-13T06:43:17.495Z,23.11
2018-05-13T06:45:43.767Z,23.16
2018-05-13T06:48:10.131Z,23.27
2018-05-13T06:50:36.403Z,23.36
2018-05-13T06:53:02.707Z,23.47
2018-05-13T06:55:28.994Z,23.62
2018-05-13T06:57:55.313Z,23.76
2018-05-13T07:00:21.569Z,23.94
2018-05-13T07:02:47.966Z,24.08
2018-05-13T07:05:14.166Z,24.30
2018-05-13T07:07:40.416Z,24.48
2018-05-13T07:10:06.694Z,24.53
2018-05-13T07:12:32.919Z,24.61
2018-05-13T07:14:59.209Z,24.66
2018-05-13T07:17:25.469Z,24.75
2018-05-13T07:19:52.030Z,24.82
2018-05-13T07:22:18.365Z,24.97
2018-05-13T07:24:44.662Z,25.12
2018-05-13T07:27:10.923Z,25.28
2018-05-13T07:29:37.161Z,25.42
2018-05-13T07:32:03.463Z,25.47
2018-05-13T07:34:29.706Z,25.65
2018-05-13T07:36:55.954Z,25.77
2018-05-13T07:39:22.243Z,26.01
2018-05-13T07:41:48.515Z,26.09
2018-05-13T07:44:14.783Z,26.24
2018-05-13T07:46:41.084Z,26.40
2018-05-13T07:49:07.350Z,26.56
2018-05-13T07:51:33.691Z,26.70
2018-05-13T07:53:59.956Z,26.95
2018-05-13T07:56:26.190Z,27.06
2018-05-13T07:58:52.470Z,27.14
2018-05-13T08:01:18.730Z,27.18
2018-05-13T08:03:45.019Z,27.31
2018-05-13T08:06:11.260Z,27.40
2018-05-13T08:08:37.518Z,27.66
2018-05-13T08:11:03.803Z,27.91
2018-05-13T08:13:30.046Z,27.99
2018-05-13T08:15:56.662Z,28.13
2018-05-13T08:18:22.931Z,28.28
2018-05-13T08:20:49.278Z,28.42
2018-05-13T08:23:15.566Z,28.43
2018-05-13T08:25:41.809Z,28.73
2018-05-13T08:28:08.182Z,29.00
2018-05-13T08:30:34.525Z,29.25
2018-05-13T08:33:01.087Z,29.50
2018-05-13T08:35:27.395Z,29.71
2018-05-13T08:37:53.649Z,30.06
2018-05-13T08:40:20.186Z,30.28
2018-05-13T08:42:46.604Z,30.62
2018-05-13T08:45:12.882Z,30.79
2018-05-13T08:47:39.175Z,30.70
2018-05-13T08:50:05.546Z,30.83
2018-05-13T08:52:31.762Z,31.11
2018-05-13T08:54:58.296Z,31.25
2018-05-13T08:57:24.518Z,31.43
2018-05-13T08:59:51.055Z,31.92
2018-05-13T09:02:17.370Z,32.13
2018-05-13T09:04:43.611Z,32.54
2018-05-13T09:07:10.152Z,32.54
2018-05-13T09:09:36.442Z,32.59
2018-05-13T09:12:02.723Z,32.89
2018-05-13T09:14:29.160Z,32.82
2018-05-13T09:16:55.351Z,32.85
2018-05-13T09:19:21.595Z,32.97
2018-05-13T09:21:47.867Z,32.84
2018-05-13T09:24:14.113Z,32.91
2018-05-13T09:26:40.817Z,32.83
2018-05-13T09:29:07.034Z,32.75
2018-05-13T09:31:33.393Z,32.76
2018-05-13T09:33:59.654Z,32.63
2018-05-13T09:36:25.959Z,32.90
2018-05-13T09:38:52.230Z,32.91
2018-05-13T09:41:18.499Z,32.88
2018-05-13T09:43:44.799Z,32.98
2018-05-13T09:46:11.043Z,33.06
2018-05-13T09:48:37.282Z,33.10
2018-05-13T09:51:03.606Z,33.23
2018-05-13T09:53:29.998Z,33.42
2018-05-13T09:55:56.230Z,33.66
2018-05-13T09:58:22.523Z,33.77
2018-05-13T10:00:48.827Z,33.72
2018-05-13T10:03:15.008Z,33.77
2018-05-13T10:05:41.393Z,33.79
2018-05-13T10:08:07.679Z,34.06
2018-05-13T10:10:33.938Z,34.40
2018-05-13T10:13:00.215Z,34.09
2018-05-13T10:15:26.458Z,34.12
2018-05-13T10:17:52.694Z,34.27
2018-05-13T10:20:19.005Z,34.55
2018-05-13T10:22:45.252Z,34.90
2018-05-13T10:25:11.490Z,35.04
2018-05-13T10:27:37.751Z,35.26
2018-05-13T10:30:04.029Z,35.52
2018-05-13T10:32:30.286Z,35.52
2018-05-13T10:34:56.547Z,35.48
2018-05-13T10:37:22.805Z,35.73
2018-05-13T10:39:49.062Z,35.93
2018-05-13T10:42:15.370Z,36.16
2018-05-13T10:44:41.610Z,36.23
2018-05-13T10:47:07.878Z,35.73
2018-05-13T10:49:34.185Z,35.66
2018-05-13T10:52:00.470Z,35.79
2018-05-13T10:54:26.707Z,36.11
2018-05-13T10:56:52.991Z,36.34
2018-05-13T10:59:19.330Z,36.53
2018-05-13T11:01:45.676Z,36.58
2018-05-13T11:04:11.938Z,36.89
2018-05-13T11:06:38.171Z,37.09
2018-05-13T11:09:04.494Z,37.28
2018-05-13T11:11:30.779Z,37.52
2018-05-13T11:13:57.089Z,37.86
2018-05-13T11:16:23.342Z,38.12
2018-05-13T11:18:49.653Z,38.61
2018-05-13T11:21:15.920Z,38.91
2018-05-13T11:23:42.160Z,39.13
2018-05-13T11:26:08.459Z,39.11
2018-05-13T11:28:34.738Z,39.35
2018-05-13T11:31:00.962Z,38.48
2018-05-13T11:33:27.235Z,37.33
2018-05-13T11:35:53.573Z,37.70
2018-05-13T11:38:19.850Z,38.09
2018-05-13T11:40:46.099Z,37.04
2018-05-13T11:43:12.559Z,36.49
2018-05-13T11:45:38.822Z,36.64
2018-05-13T11:48:05.086Z,37.88
2018-05-13T11:50:31.398Z,36.66
2018-05-13T11:52:57.634Z,37.32
2018-05-13T11:55:23.906Z,37.55
2018-05-13T11:57:50.138Z,37.73
2018-05-13T12:00:16.415Z,37.45
2018-05-13T12:02:42.674Z,38.80
2018-05-13T12:05:08.911Z,39.66
2018-05-13T12:07:35.162Z,40.25
2018-05-13T12:10:01.451Z,40.58
2018-05-13T12:12:27.690Z,40.92
2018-05-13T12:14:54.015Z,41.17
2018-05-13T12:17:20.384Z,40.75
2018-05-13T12:19:46.639Z,38.33
2018-05-13T12:22:12.858Z,39.13
2018-05-13T12:24:39.135Z,39.80
2018-05-13T12:27:05.385Z,39.99
2018-05-13T12:29:31.646Z,40.80
2018-05-13T12:31:57.939Z,41.31
2018-05-13T12:34:24.178Z,41.56
2018-05-13T12:36:50.479Z,40.71
2018-05-13T12:39:16.776Z,40.60
2018-05-13T12:41:43.019Z,40.38
2018-05-13T12:44:09.270Z,38.91
2018-05-13T12:46:35.574Z,39.80
2018-05-13T12:49:01.835Z,40.32
2018-05-13T12:51:28.099Z,40.31
2018-05-13T12:53:54.353Z,39.27
2018-05-13T12:56:20.669Z,37.34
2018-05-13T12:58:46.847Z,38.98
2018-05-13T13:01:13.115Z,40.28
2018-05-13T13:03:39.360Z,41.06
2018-05-13T13:06:05.736Z,39.68
2018-05-13T13:08:32.011Z,37.70
2018-05-13T13:10:58.243Z,37.36
2018-05-13T13:13:24.478Z,37.07
2018-05-13T13:15:50.834Z,38.44
2018-05-13T13:18:17.127Z,38.84
2018-05-13T13:20:43.335Z,38.80
2018-05-13T13:23:09.591Z,39.01
2018-05-13T13:25:35.831Z,40.56
2018-05-13T13:28:02.102Z,41.39
2018-05-13T13:30:28.465Z,41.90
2018-05-13T13:32:54.668Z,40.59
2018-05-13T13:35:20.894Z,38.39
2018-05-13T13:37:47.181Z,38.67
2018-05-13T13:40:13.408Z,38.97
2018-05-13T13:42:39.667Z,39.90
2018-05-13T13:45:06.001Z,40.91
2018-05-13T13:47:32.259Z,41.31
2018-05-13T13:49:58.512Z,41.66
2018-05-13T13:52:24.794Z,42.03
2018-05-13T13:54:51.096Z,42.20
2018-05-13T13:57:17.347Z,42.28
2018-05-13T13:59:43.639Z,42.45
2018-05-13T14:02:09.899Z,42.41
2018-05-13T14:04:36.154Z,41.84
2018-05-13T14:07:02.435Z,41.89
2018-05-13T14:09:28.690Z,41.89
2018-05-13T14:11:55.157Z,42.09
2018-05-13T14:14:21.371Z,42.33
2018-05-13T14:16:47.611Z,42.13
2018-05-13T14:19:13.841Z,42.12
2018-05-13T14:21:40.187Z,42.21
2018-05-13T14:24:07.246Z,42.21
2018-05-13T14:26:33.595Z,42.25
2018-05-13T14:28:59.874Z,42.19
2018-05-13T14:31:26.134Z,42.10
2018-05-13T14:33:52.599Z,42.12
2018-05-13T14:36:18.891Z,42.02
2018-05-13T14:38:45.126Z,41.97
2018-05-13T14:41:11.498Z,41.91
2018-05-13T14:43:37.674Z,41.77
2018-05-13T14:46:03.943Z,41.50
2018-05-13T14:48:30.183Z,41.38
2018-05-13T14:50:56.510Z,41.14
2018-05-13T14:53:22.757Z,40.86
2018-05-13T14:55:49.022Z,40.34
2018-05-13T14:58:15.303Z,40.17
2018-05-13T15:00:41.539Z,40.04
2018-05-13T15:03:07.859Z,39.24
2018-05-13T15:05:34.123Z,38.90
2018-05-13T15:08:00.354Z,38.75
2018-05-13T15:10:26.607Z,38.14
2018-05-13T15:12:52.903Z,37.72
2018-05-13T15:15:19.133Z,37.47
2018-05-13T15:17:45.359Z,36.86
2018-05-13T15:20:11.642Z,36.40
2018-05-13T15:22:37.984Z,36.17
2018-05-13T15:25:04.158Z,35.42
2018-05-13T15:27:30.413Z,34.87
2018-05-13T15:29:56.766Z,34.27
2018-05-13T15:32:22.998Z,33.89
2018-05-13T15:34:49.314Z,33.60
2018-05-13T15:37:15.616Z,33.10
2018-05-13T15:39:41.839Z,32.34
2018-05-13T15:42:08.131Z,31.87
2018-05-13T15:44:34.361Z,31.40
2018-05-13T15:47:00.619Z,31.17
2018-05-13T15:49:26.890Z,30.98
2018-05-13T15:51:53.114Z,30.90
2018-05-13T15:54:19.346Z,30.68
2018-05-13T15:56:45.598Z,30.43
2018-05-13T15:59:11.854Z,30.32
2018-05-13T16:01:38.088Z,30.12
2018-05-13T16:04:04.350Z,30.06
2018-05-13T16:06:30.692Z,29.98
2018-05-13T16:08:56.968Z,29.81
2018-05-13T16:11:23.248Z,29.65
2018-05-13T16:13:49.489Z,29.63
2018-05-13T16:16:15.783Z,29.64
2018-05-13T16:18:42.125Z,29.57
2018-05-13T16:21:08.331Z,29.38
2018-05-13T16:23:34.575Z,29.24
2018-05-13T16:26:00.834Z,29.16
2018-05-13T16:28:27.121Z,29.09
2018-05-13T16:30:53.350Z,28.96
2018-05-13T16:33:19.623Z,28.90
2018-05-13T16:35:45.923Z,28.82
2018-05-13T16:38:12.154Z,28.75
2018-05-13T16:40:38.426Z,28.57
2018-05-13T16:43:04.710Z,28.39
2018-05-13T16:45:30.950Z,28.39
2018-05-13T16:47:57.352Z,28.35
2018-05-13T16:50:23.587Z,28.34
2018-05-13T16:52:49.827Z,28.31
2018-05-13T16:55:16.087Z,28.29
2018-05-13T16:57:42.310Z,28.15
2018-05-13T17:00:08.583Z,28.02
2018-05-13T17:02:35.997Z,27.98
2018-05-13T17:05:03.161Z,27.99
2018-05-13T17:07:29.439Z,27.92
2018-05-13T17:09:55.698Z,27.85
2018-05-13T17:12:21.922Z,27.74
2018-05-13T17:14:48.166Z,27.66
2018-05-13T17:17:14.496Z,27.66
2018-05-13T17:19:40.711Z,27.61
2018-05-13T17:22:06.958Z,27.47
2018-05-13T17:24:33.305Z,27.34
2018-05-13T17:26:59.573Z,27.26
2018-05-13T17:29:25.858Z,27.08
2018-05-13T17:31:52.179Z,27.04
2018-05-13T17:34:18.541Z,27.04
2018-05-13T17:36:44.703Z,26.95
2018-05-13T17:39:10.987Z,26.92
2018-05-13T17:41:37.214Z,26.82
2018-05-13T17:44:03.507Z,26.74
2018-05-13T17:46:29.796Z,26.72
2018-05-13T17:48:56.063Z,26.58
2018-05-13T17:51:22.302Z,26.55
2018-05-13T17:53:48.594Z,26.52
2018-05-13T17:56:14.839Z,26.45
2018-05-13T17:58:41.651Z,26.44
2018-05-13T18:01:07.942Z,26.40
2018-05-13T18:03:34.195Z,26.31
2018-05-13T18:06:01.260Z,26.26
2018-05-13T18:08:27.514Z,26.22
2018-05-13T18:10:53.774Z,26.14
2018-05-13T18:13:20.053Z,26.04
2018-05-13T18:15:46.414Z,25.92
2018-05-13T18:18:12.638Z,25.86
2018-05-13T18:20:38.900Z,25.83
2018-05-13T18:23:05.334Z,25.80
2018-05-13T18:25:31.558Z,25.73
2018-05-13T18:27:57.812Z,25.69
2018-05-13T18:30:24.107Z,25.56
2018-05-13T18:32:50.343Z,25.44
2018-05-13T18:35:16.598Z,25.35
2018-05-13T18:37:42.870Z,25.26
2018-05-13T18:40:09.229Z,25.22
2018-05-13T18:42:35.491Z,25.12
2018-05-13T18:45:01.810Z,25.11
2018-05-13T18:47:28.058Z,25.07
2018-05-13T18:49:54.331Z,24.97
2018-05-13T18:52:20.599Z,24.95
2018-05-13T18:54:46.903Z,24.86
2018-05-13T18:57:13.126Z,24.76
2018-05-13T18:59:39.410Z,24.70
2018-05-13T19:02:05.678Z,24.69
2018-05-13T19:04:32.022Z,24.65
2018-05-13T19:06:58.310Z,24.57
2018-05-13T19:09:24.586Z,24.50
2018-05-13T19:11:50.875Z,24.43
2018-05-13T19:14:17.527Z,24.35
2018-05-13T19:16:43.866Z,24.34
2018-05-13T19:19:10.119Z,24.23
2018-05-13T19:21:36.685Z,24.13
2018-05-13T19:24:02.975Z,24.11
2018-05-13T19:26:29.399Z,24.07
2018-05-13T19:28:55.777Z,24.06
2018-05-13T19:31:22.211Z,23.99
2018-05-13T19:33:48.594Z,24.00
2018-05-13T19:36:15.125Z,23.97
2018-05-13T19:38:41.561Z,23.91
2018-05-13T19:41:08.044Z,23.84
2018-05-13T19:43:34.698Z,23.75
2018-05-13T19:46:01.304Z,23.74
2018-05-13T19:48:28.584Z,23.66
2018-05-13T19:50:56.070Z,23.57
2018-05-13T19:53:22.655Z,23.51
2018-05-13T19:55:49.118Z,23.45
2018-05-13T19:58:15.864Z,23.40
2018-05-13T20:00:42.532Z,23.35
2018-05-13T20:03:09.279Z,23.27
2018-05-13T20:05:35.793Z,23.24
2018-05-13T20:08:02.410Z,23.23
2018-05-13T20:10:29.000Z,23.20
2018-05-13T20:12:55.596Z,23.20
2018-05-13T20:15:22.017Z,23.19
2018-05-13T20:17:48.523Z,23.15
2018-05-13T20:20:15.117Z,23.16
2018-05-13T20:36:09.217Z,22.76
2018-05-13T20:38:36.664Z,22.79
2018-05-13T20:41:03.039Z,22.75
2018-05-13T20:43:29.356Z,22.62
2018-05-13T20:45:55.646Z,22.51
2018-05-13T20:48:21.962Z,22.43
2018-05-13T20:50:48.258Z,22.30
2018-05-13T20:53:14.504Z,22.32
2018-05-13T20:55:41.017Z,22.27
2018-05-13T20:58:07.329Z,22.25
2018-05-13T21:00:33.588Z,22.26
2018-05-13T21:02:59.832Z,22.23
2018-05-13T21:05:26.203Z,22.13
2018-05-13T21:07:52.515Z,22.02
2018-05-13T21:10:18.884Z,21.98
2018-05-13T21:12:45.215Z,22.01
2018-05-13T21:15:11.459Z,22.07
2018-05-13T21:17:37.825Z,22.08
2018-05-13T21:20:04.172Z,21.96
2018-05-13T21:22:30.700Z,21.89
2018-05-13T21:24:57.077Z,21.88
2018-05-13T21:27:23.603Z,21.85
2018-05-13T21:29:49.903Z,21.86
2018-05-13T21:32:16.469Z,21.78
2018-05-13T21:34:43.306Z,21.78
2018-05-13T21:37:10.110Z,21.72
2018-05-13T21:39:37.038Z,21.75
2018-05-13T21:42:03.803Z,21.72
2018-05-13T21:44:30.527Z,21.65
2018-05-13T21:46:57.149Z,21.61
2018-05-13T21:49:24.200Z,21.62
2018-05-13T21:51:50.789Z,21.52
2018-05-13T21:54:17.243Z,21.48
2018-05-13T21:56:44.552Z,21.43
2018-05-13T21:59:11.004Z,21.44
2018-05-13T22:01:37.304Z,21.35
2018-05-13T22:04:03.581Z,21.37
2018-05-13T22:06:30.212Z,21.45
2018-05-13T22:08:56.635Z,21.46
2018-05-13T22:11:24.260Z,21.48
2018-05-13T22:13:50.975Z,21.46
2018-05-13T22:16:17.725Z,21.41
2018-05-13T22:18:45.190Z,21.36
2018-05-13T22:21:11.898Z,21.31
2018-05-13T22:23:38.243Z,21.30
2018-05-13T22:26:04.742Z,21.31
2018-05-13T22:28:31.096Z,21.30
2018-05-13T22:30:57.414Z,21.28
2018-05-13T22:33:23.907Z,21.21
2018-05-13T22:35:50.178Z,21.20
2018-05-13T22:38:16.600Z,21.16
2018-05-13T22:40:42.914Z,21.12
2018-05-13T22:43:09.152Z,21.11
2018-05-13T22:45:35.399Z,21.07
2018-05-13T22:48:01.670Z,21.05
2018-05-13T22:50:27.927Z,20.96
2018-05-13T22:52:54.163Z,21.00
2018-05-13T22:55:20.756Z,21.02
2018-05-13T22:57:47.052Z,21.01
2018-05-13T23:00:13.370Z,21.02
2018-05-13T23:02:39.656Z,20.99
2018-05-13T23:05:05.976Z,20.94
2018-05-13T23:07:32.234Z,20.96
2018-05-13T23:09:58.486Z,20.95
2018-05-13T23:12:24.762Z,20.93
2018-05-13T23:14:51.156Z,20.93
2018-05-13T23:17:17.386Z,20.89
2018-05-13T23:19:43.611Z,20.86
2018-05-13T23:25:07.326Z,20.83
2018-05-13T23:27:34.488Z,20.80
2018-05-13T23:30:00.755Z,20.79
2018-05-13T23:32:27.045Z,20.83
2018-05-13T23:34:53.381Z,20.83
2018-05-13T23:37:19.619Z,20.75
2018-05-13T23:39:45.896Z,20.74
2018-05-13T23:42:12.174Z,20.74
2018-05-13T23:44:38.510Z,20.73
2018-05-13T23:47:04.770Z,20.66
2018-05-13T23:49:31.063Z,20.66
2018-05-13T23:51:57.407Z,20.63
2018-05-13T23:54:23.654Z,20.64
2018-05-13T23:56:49.951Z,20.66
2018-05-13T23:59:16.215Z,20.61
